createdAt,value
2017-12-02T00:00:44.555Z,25.57
2017-12-02T00:03:14.931Z,24.13
2017-12-02T00:05:44.316Z,27.10
2017-12-02T00:08:12.954Z,26.27
2017-12-02T00:10:41.447Z,26.73
2017-12-02T00:13:11.036Z,27.50
2017-12-02T00:18:48.976Z,24.77
2017-12-02T00:21:18.185Z,24.97
2017-12-02T00:23:48.177Z,25.27
2017-12-02T00:26:16.648Z,25.73
2017-12-02T00:28:46.022Z,27.33
2017-12-02T00:31:16.550Z,25.90
2017-12-02T00:33:46.004Z,25.53
2017-12-02T00:36:29.810Z,23.97
2017-12-02T00:38:59.026Z,25.60
2017-12-02T00:41:28.242Z,25.30
2017-12-02T00:43:56.968Z,24.53
2017-12-02T00:46:26.810Z,23.53
2017-12-02T00:48:55.131Z,23.43
2017-12-02T00:51:24.937Z,22.80
2017-12-02T00:53:54.046Z,23.87
2017-12-02T00:56:23.180Z,23.27
2017-12-02T00:58:53.291Z,22.20
2017-12-02T01:01:21.766Z,22.77
2017-12-02T01:03:53.316Z,22.83
2017-12-02T01:06:22.627Z,21.13
2017-12-02T01:08:51.971Z,22.13
2017-12-02T01:13:54.857Z,23.03
2017-12-02T01:16:23.334Z,23.03
2017-12-02T01:18:52.594Z,22.70
2017-12-02T01:21:20.978Z,21.53
2017-12-02T01:23:50.385Z,24.43
2017-12-02T01:26:22.431Z,24.13
2017-12-02T01:28:50.843Z,23.57
2017-12-02T01:31:20.332Z,23.37
2017-12-02T01:33:49.251Z,21.20
2017-12-02T01:36:17.625Z,23.43
2017-12-02T01:38:48.641Z,22.30
2017-12-02T01:41:18.180Z,21.03
2017-12-02T01:43:47.368Z,23.40
2017-12-02T01:46:17.844Z,22.93
2017-12-02T01:48:46.681Z,23.87
2017-12-02T01:51:15.096Z,20.80
2017-12-02T01:53:43.512Z,22.30
2017-12-02T01:56:12.860Z,21.37
2017-12-02T01:58:43.259Z,21.80
2017-12-02T02:01:12.431Z,21.20
2017-12-02T02:03:41.560Z,20.73
2017-12-02T02:06:11.414Z,21.80
2017-12-02T02:08:42.802Z,22.40
2017-12-02T02:11:12.465Z,21.60
2017-12-02T02:13:40.818Z,20.03
2017-12-02T02:16:09.273Z,20.87
2017-12-02T02:18:38.548Z,20.90
2017-12-02T02:21:08.588Z,22.13
2017-12-02T02:23:37.778Z,20.77
2017-12-02T02:26:07.101Z,20.47
2017-12-02T02:28:35.774Z,21.50
2017-12-02T02:31:05.057Z,21.30
2017-12-02T02:33:33.464Z,19.97
2017-12-02T02:36:01.967Z,20.93
2017-12-02T02:38:31.433Z,22.00
2017-12-02T02:40:59.834Z,19.93
2017-12-02T02:43:29.579Z,21.27
2017-12-02T02:45:59.583Z,20.40
2017-12-02T02:48:27.960Z,21.50
2017-12-02T02:50:57.263Z,19.93
2017-12-02T02:53:25.676Z,22.30
2017-12-02T02:55:54.097Z,21.60
2017-12-02T02:58:22.571Z,21.37
2017-12-02T03:00:51.534Z,20.30
2017-12-02T03:03:19.909Z,19.80
2017-12-02T03:05:48.170Z,19.47
2017-12-02T03:08:17.075Z,20.10
2017-12-02T03:10:46.235Z,17.47
2017-12-02T03:13:14.684Z,19.77
2017-12-02T03:15:43.044Z,18.73
2017-12-02T03:18:13.253Z,21.13
2017-12-02T03:20:41.635Z,19.60
2017-12-02T03:23:10.010Z,21.40
2017-12-02T03:25:38.363Z,19.30
2017-12-02T03:28:07.403Z,18.90
2017-12-02T03:30:36.427Z,18.50
2017-12-02T03:33:06.355Z,20.80
2017-12-02T03:35:37.552Z,19.83
2017-12-02T03:38:06.320Z,19.57
2017-12-02T03:40:34.666Z,19.10
2017-12-02T03:43:04.736Z,19.83
2017-12-02T03:45:34.188Z,21.17
2017-12-02T03:48:03.268Z,18.20
2017-12-02T03:50:32.674Z,19.73
2017-12-02T03:53:03.998Z,20.00
2017-12-02T03:55:32.557Z,21.07
2017-12-02T03:58:02.307Z,20.60
2017-12-02T04:00:33.115Z,22.20
2017-12-02T04:03:06.417Z,20.83
2017-12-02T04:05:38.775Z,20.77
2017-12-02T04:08:07.862Z,20.80
2017-12-02T04:10:36.226Z,20.50
2017-12-02T04:13:05.335Z,20.43
2017-12-02T04:15:35.219Z,21.80
2017-12-02T04:18:04.701Z,20.77
2017-12-02T04:20:34.041Z,21.50
2017-12-02T04:23:03.225Z,21.70
2017-12-02T04:25:33.127Z,22.23
2017-12-02T04:28:03.467Z,24.50
2017-12-02T04:30:33.676Z,24.10
2017-12-02T04:33:03.757Z,24.00
2017-12-02T04:35:32.378Z,22.67
2017-12-02T04:38:00.624Z,22.67
2017-12-02T04:40:28.867Z,23.03
2017-12-02T04:43:00.136Z,24.13
2017-12-02T04:45:29.721Z,23.33
2017-12-02T04:47:58.940Z,22.93
2017-12-02T04:50:27.637Z,24.43
2017-12-02T04:53:06.149Z,25.70
2017-12-02T04:55:37.131Z,26.67
2017-12-02T04:58:08.204Z,22.53
2017-12-02T05:00:40.798Z,25.67
2017-12-02T05:03:12.766Z,21.73
2017-12-02T05:05:44.878Z,22.53
2017-12-02T05:08:13.380Z,22.70
2017-12-02T05:10:43.083Z,21.17
2017-12-02T05:13:14.526Z,20.80
2017-12-02T05:15:46.607Z,19.57
2017-12-02T05:18:15.839Z,18.33
2017-12-02T05:20:46.306Z,19.00
2017-12-02T05:23:17.408Z,19.87
2017-12-02T05:25:46.900Z,20.60
2017-12-02T05:28:17.731Z,20.43
2017-12-02T05:30:47.143Z,19.57
2017-12-02T05:33:19.889Z,20.00
2017-12-02T05:35:51.625Z,20.50
2017-12-02T05:38:22.165Z,19.00
2017-12-02T05:40:50.482Z,20.73
2017-12-02T05:43:20.256Z,20.60
2017-12-02T05:45:49.458Z,20.20
2017-12-02T05:48:18.593Z,19.67
2017-12-02T05:50:49.559Z,21.77
2017-12-02T05:53:18.866Z,21.73
2017-12-02T05:55:49.147Z,19.93
2017-12-02T05:58:17.764Z,20.40
2017-12-02T06:00:51.252Z,20.57
2017-12-02T06:03:20.042Z,20.83
2017-12-02T06:05:50.936Z,22.17
2017-12-02T06:08:21.512Z,20.03
2017-12-02T06:10:49.836Z,20.67
2017-12-02T06:13:19.099Z,20.40
2017-12-02T06:15:47.413Z,20.67
2017-12-02T06:18:17.780Z,20.97
2017-12-02T06:20:50.258Z,21.37
2017-12-02T06:23:20.478Z,23.23
2017-12-02T06:25:48.834Z,21.90
2017-12-02T06:28:19.915Z,22.63
2017-12-02T06:30:49.562Z,23.73
2017-12-02T06:33:23.995Z,23.30
2017-12-02T06:35:52.292Z,24.13
2017-12-02T06:38:25.216Z,27.10
2017-12-02T06:40:53.666Z,28.13
2017-12-02T06:43:22.175Z,27.30
2017-12-02T06:45:52.219Z,25.83
2017-12-02T06:48:21.439Z,27.27
2017-12-02T06:50:53.791Z,27.70
2017-12-02T06:53:23.900Z,33.33
2017-12-02T06:55:54.714Z,35.23
2017-12-02T06:58:27.872Z,46.57
2017-12-02T07:01:01.593Z,44.33
2017-12-02T07:03:30.748Z,46.37
2017-12-02T07:08:33.593Z,30.13
2017-12-02T07:11:07.302Z,30.77
2017-12-02T07:13:42.545Z,31.77
2017-12-02T07:16:14.946Z,30.30
2017-12-02T07:18:44.701Z,30.23
2017-12-02T07:21:13.968Z,30.27
2017-12-02T07:23:53.687Z,30.67
2017-12-02T07:26:23.558Z,29.87
2017-12-02T07:28:56.881Z,32.33
2017-12-02T07:31:27.366Z,34.00
2017-12-02T07:33:57.262Z,31.17
2017-12-02T07:36:30.857Z,32.70
2017-12-02T07:39:00.446Z,31.63
2017-12-02T07:41:34.396Z,31.60
2017-12-02T07:44:05.574Z,32.13
2017-12-02T07:46:35.818Z,28.50
2017-12-02T07:49:07.061Z,30.23
2017-12-02T07:51:39.500Z,32.23
2017-12-02T07:54:09.746Z,30.77
2017-12-02T07:56:40.052Z,30.70
2017-12-02T07:59:16.200Z,33.43
2017-12-02T08:01:46.531Z,33.13
2017-12-02T08:04:17.921Z,31.80
2017-12-02T08:06:48.922Z,33.13
2017-12-02T08:11:59.888Z,31.83
2017-12-02T08:14:31.853Z,31.77
2017-12-02T08:17:04.799Z,31.77
2017-12-02T08:19:35.431Z,31.20
2017-12-02T08:22:07.717Z,29.43
2017-12-02T08:24:36.845Z,33.30
2017-12-02T08:27:10.875Z,32.27
2017-12-02T08:29:43.695Z,37.40
2017-12-02T08:32:16.242Z,37.67
2017-12-02T08:34:51.186Z,42.83
2017-12-02T08:37:22.964Z,35.70
2017-12-02T08:39:54.621Z,46.00
2017-12-02T08:45:11.111Z,36.80
2017-12-02T08:47:42.959Z,45.43
2017-12-02T08:50:14.096Z,47.70
2017-12-02T08:52:46.497Z,41.53
2017-12-02T08:55:19.856Z,39.83
2017-12-02T08:57:53.896Z,35.07
2017-12-02T09:00:25.208Z,31.53
2017-12-02T09:02:56.040Z,32.97
2017-12-02T09:05:27.301Z,31.57
2017-12-02T09:08:03.124Z,30.23
2017-12-02T09:10:34.216Z,29.10
2017-12-02T09:13:09.003Z,30.03
2017-12-02T09:15:37.575Z,30.03
2017-12-02T09:18:08.773Z,30.27
2017-12-02T09:23:44.710Z,29.67
2017-12-02T09:26:15.397Z,29.70
2017-12-02T09:28:45.490Z,29.13
2017-12-02T09:31:15.293Z,30.97
2017-12-02T09:33:46.585Z,31.70
2017-12-02T09:36:15.002Z,28.87
2017-12-02T09:38:45.900Z,33.50
2017-12-02T09:41:15.498Z,31.63
2017-12-02T09:43:44.424Z,29.10
2017-12-02T09:46:18.331Z,30.93
2017-12-02T09:48:46.854Z,29.23
2017-12-02T09:51:16.616Z,27.47
2017-12-02T09:53:47.160Z,27.63
2017-12-02T09:56:46.202Z,28.80
2017-12-02T09:59:24.420Z,28.87
2017-12-02T10:05:18.584Z,32.00
2017-12-02T10:07:51.316Z,28.43
2017-12-02T10:10:27.599Z,28.23
2017-12-02T10:15:38.754Z,30.67
2017-12-02T10:18:18.540Z,27.13
2017-12-02T10:24:26.234Z,30.50
2017-12-02T10:26:57.518Z,29.93
2017-12-02T10:29:27.514Z,30.87
2017-12-02T10:32:05.441Z,28.57
2017-12-02T10:34:55.334Z,28.63
2017-12-02T10:37:29.181Z,27.20
2017-12-02T10:40:00.964Z,27.20
2017-12-02T10:42:39.972Z,30.80
2017-12-02T10:48:11.389Z,30.00
2017-12-02T10:50:44.178Z,29.10
2017-12-02T10:56:08.510Z,30.37
2017-12-02T10:58:50.562Z,28.47
2017-12-02T11:04:22.011Z,27.90
2017-12-02T11:06:51.298Z,29.70
2017-12-02T11:09:20.671Z,30.53
2017-12-02T11:15:02.999Z,30.63
2017-12-02T11:17:38.518Z,28.83
2017-12-02T11:20:09.507Z,27.70
2017-12-02T11:22:41.837Z,28.67
2017-12-02T11:25:11.348Z,31.17
2017-12-02T11:27:43.793Z,29.80
2017-12-02T11:30:13.195Z,28.17
2017-12-02T11:32:43.790Z,29.87
2017-12-02T11:35:26.943Z,29.63
2017-12-02T11:37:58.800Z,29.30
2017-12-02T11:40:28.506Z,29.50
2017-12-02T11:42:56.918Z,27.47
2017-12-02T11:45:26.100Z,34.73
2017-12-02T11:48:01.350Z,33.33
2017-12-02T11:50:33.017Z,32.90
2017-12-02T11:53:04.415Z,30.73
2017-12-02T11:55:34.277Z,35.83
2017-12-02T11:58:04.097Z,35.57
2017-12-02T12:00:35.141Z,30.80
2017-12-02T12:03:09.525Z,29.00
2017-12-02T12:05:39.015Z,29.47
2017-12-02T12:08:07.681Z,31.33
2017-12-02T12:10:36.814Z,29.47
2017-12-02T12:13:08.882Z,28.57
2017-12-02T12:15:41.677Z,29.60
2017-12-02T12:18:14.845Z,28.27
2017-12-02T12:20:49.031Z,27.80
2017-12-02T12:23:19.174Z,28.37
2017-12-02T12:25:49.926Z,26.97
2017-12-02T12:28:20.030Z,26.87
2017-12-02T12:30:56.324Z,28.17
2017-12-02T12:33:25.286Z,27.83
2017-12-02T12:35:56.963Z,26.13
2017-12-02T12:38:26.198Z,30.77
2017-12-02T12:40:58.479Z,29.90
2017-12-02T12:43:34.631Z,29.00
2017-12-02T12:46:03.709Z,32.37
2017-12-02T12:48:33.761Z,29.33
2017-12-02T12:51:16.241Z,28.67
2017-12-02T12:53:48.950Z,29.47
2017-12-02T12:56:17.573Z,27.43
2017-12-02T12:58:48.728Z,27.57
2017-12-02T13:01:19.073Z,27.77
2017-12-02T13:03:50.098Z,29.10
2017-12-02T13:06:21.234Z,33.20
2017-12-02T13:08:49.713Z,30.00
2017-12-02T13:11:27.994Z,25.50
2017-12-02T13:14:00.473Z,25.97
2017-12-02T13:16:30.573Z,29.17
2017-12-02T13:19:04.544Z,24.47
2017-12-02T13:21:33.736Z,26.90
2017-12-02T13:24:07.584Z,31.90
2017-12-02T13:26:36.984Z,23.63
2017-12-02T13:29:05.898Z,25.20
2017-12-02T13:31:39.956Z,24.87
2017-12-02T13:34:12.147Z,26.50
2017-12-02T13:36:43.165Z,30.97
2017-12-02T13:39:11.447Z,25.17
2017-12-02T13:41:41.644Z,23.20
2017-12-02T13:44:10.624Z,29.07
2017-12-02T13:46:47.040Z,24.70
2017-12-02T13:49:17.567Z,24.90
2017-12-02T13:51:53.161Z,28.07
2017-12-02T13:54:25.963Z,24.80
2017-12-02T13:56:56.442Z,24.60
2017-12-02T14:02:06.627Z,26.83
2017-12-02T14:04:35.015Z,24.80
2017-12-02T14:07:03.305Z,26.10
2017-12-02T14:09:31.553Z,23.90
2017-12-02T14:11:59.805Z,24.30
2017-12-02T14:14:28.153Z,25.47
2017-12-02T14:16:57.184Z,34.63
2017-12-02T14:19:25.528Z,26.70
2017-12-02T14:21:54.587Z,26.00
2017-12-02T14:24:23.643Z,32.20
2017-12-02T14:26:51.919Z,26.97
2017-12-02T14:29:20.169Z,26.60
2017-12-02T14:31:48.573Z,24.90
2017-12-02T14:34:17.642Z,25.10
2017-12-02T14:36:46.938Z,25.37
2017-12-02T14:39:16.303Z,26.97
2017-12-02T14:41:48.410Z,24.13
2017-12-02T14:44:28.519Z,23.37
2017-12-02T14:46:59.083Z,23.67
2017-12-02T14:49:28.267Z,25.50
2017-12-02T14:51:57.972Z,27.60
2017-12-02T14:54:26.670Z,26.97
2017-12-02T14:56:59.097Z,24.77
2017-12-02T14:59:29.300Z,23.80
2017-12-02T15:01:57.632Z,23.93
2017-12-02T15:04:26.053Z,29.73
2017-12-02T15:06:54.364Z,25.70
2017-12-02T15:09:25.789Z,23.73
2017-12-02T15:11:55.969Z,26.20
2017-12-02T15:14:24.981Z,25.83
2017-12-02T15:16:54.175Z,26.43
2017-12-02T15:19:22.432Z,26.93
2017-12-02T15:21:51.666Z,22.53
2017-12-02T15:24:19.984Z,22.70
2017-12-02T15:26:49.719Z,24.80
2017-12-02T15:29:17.964Z,25.13
2017-12-02T15:31:46.274Z,28.30
2017-12-02T15:34:14.654Z,23.87
2017-12-02T15:36:43.918Z,22.40
2017-12-02T15:39:12.200Z,24.30
2017-12-02T15:41:40.440Z,25.40
2017-12-02T15:44:08.702Z,20.73
2017-12-02T15:46:37.704Z,24.77
2017-12-02T15:49:06.059Z,24.80
2017-12-02T15:51:34.350Z,24.70
2017-12-02T15:54:02.569Z,22.33
2017-12-02T15:56:30.789Z,20.30
2017-12-02T15:58:59.814Z,23.10
2017-12-02T16:01:28.809Z,20.33
2017-12-02T16:03:57.832Z,22.33
2017-12-02T16:06:26.835Z,23.20
2017-12-02T16:08:55.070Z,20.80
2017-12-02T16:11:23.332Z,21.20
2017-12-02T16:13:51.597Z,21.20
2017-12-02T16:16:19.852Z,19.67
2017-12-02T16:18:48.203Z,21.80
2017-12-02T16:21:16.444Z,22.57
2017-12-02T16:23:44.656Z,23.20
2017-12-02T16:26:12.873Z,25.37
2017-12-02T16:28:41.129Z,23.37
2017-12-02T16:31:09.377Z,22.17
2017-12-02T16:33:42.892Z,22.40
2017-12-02T16:36:11.269Z,21.53
2017-12-02T16:38:39.504Z,22.73
2017-12-02T16:41:07.759Z,24.47
2017-12-02T16:43:35.996Z,23.83
2017-12-02T16:46:04.293Z,22.50
2017-12-02T16:48:32.553Z,24.10
2017-12-02T16:51:00.766Z,23.50
2017-12-02T16:53:29.014Z,24.43
2017-12-02T16:55:57.331Z,25.70
2017-12-02T16:58:26.403Z,27.03
2017-12-02T17:00:54.723Z,29.63
2017-12-02T17:03:23.174Z,28.30
2017-12-02T17:05:51.420Z,26.50
2017-12-02T17:08:19.667Z,31.43
2017-12-02T17:10:48.662Z,30.80
2017-12-02T17:13:16.875Z,37.80
2017-12-02T17:15:45.361Z,30.83
2017-12-02T17:18:13.672Z,27.70
2017-12-02T17:20:41.939Z,29.17
2017-12-02T17:23:10.168Z,27.30
2017-12-02T17:25:38.476Z,29.20
2017-12-02T17:28:06.731Z,27.67
2017-12-02T17:30:35.050Z,28.17
2017-12-02T17:33:03.913Z,28.67
2017-12-02T17:35:32.143Z,29.23
2017-12-02T17:38:01.180Z,27.53
2017-12-02T17:40:29.414Z,26.10
2017-12-02T17:42:58.473Z,25.97
2017-12-02T17:45:26.759Z,26.60
2017-12-02T17:47:55.532Z,27.23
2017-12-02T17:50:23.761Z,27.17
2017-12-02T17:52:51.996Z,28.23
2017-12-02T17:55:20.283Z,27.67
2017-12-02T17:57:49.385Z,28.60
2017-12-02T18:00:17.648Z,27.60
2017-12-02T18:02:45.885Z,26.17
2017-12-02T18:05:14.158Z,27.90
2017-12-02T18:07:43.316Z,27.30
2017-12-02T18:10:11.561Z,25.70
2017-12-02T18:12:39.814Z,25.30
2017-12-02T18:15:08.170Z,28.17
2017-12-02T18:17:36.484Z,27.33
2017-12-02T18:20:04.724Z,27.60
2017-12-02T18:22:33.002Z,27.17
2017-12-02T18:25:01.257Z,29.17
2017-12-02T18:27:29.498Z,26.63
2017-12-02T18:29:57.780Z,31.30
2017-12-02T18:32:26.784Z,29.40
2017-12-02T18:34:55.833Z,27.43
2017-12-02T18:37:24.049Z,31.93
2017-12-02T18:39:52.298Z,28.87
2017-12-02T18:42:20.576Z,32.80
2017-12-02T18:44:49.159Z,37.50
2017-12-02T18:47:18.557Z,38.97
2017-12-02T18:49:46.791Z,39.60
2017-12-02T18:52:15.169Z,34.20
2017-12-02T18:54:43.512Z,33.97
2017-12-02T18:57:12.560Z,32.40
2017-12-02T18:59:40.787Z,32.40
2017-12-02T19:02:09.038Z,28.70
2017-12-02T19:04:37.388Z,29.47
2017-12-02T19:07:05.651Z,29.80
2017-12-02T19:09:33.905Z,28.13
2017-12-02T19:12:03.511Z,29.57
2017-12-02T19:14:31.783Z,31.53
2017-12-02T19:17:00.048Z,30.10
2017-12-02T19:19:28.266Z,33.17
2017-12-02T19:21:56.522Z,32.60
2017-12-02T19:24:25.496Z,35.80
2017-12-02T19:26:54.905Z,29.90
2017-12-02T19:29:23.291Z,33.40
2017-12-02T19:31:51.625Z,33.67
2017-12-02T19:34:21.439Z,29.63
2017-12-02T19:36:49.726Z,30.40
2017-12-02T19:39:18.803Z,27.60
2017-12-02T19:41:47.899Z,30.70
2017-12-02T19:44:16.139Z,28.70
2017-12-02T19:46:44.491Z,28.57
2017-12-02T19:49:12.772Z,30.47
2017-12-02T19:51:41.976Z,29.87
2017-12-02T19:54:10.345Z,28.83
2017-12-02T19:56:38.590Z,30.43
2017-12-02T19:59:07.575Z,29.20
2017-12-02T20:01:38.528Z,27.70
2017-12-02T20:04:07.026Z,28.13
2017-12-02T20:06:36.148Z,26.30
2017-12-02T20:09:04.431Z,24.37
2017-12-02T20:11:32.735Z,24.60
2017-12-02T20:14:01.050Z,25.40
2017-12-02T20:16:29.319Z,25.57
2017-12-02T20:22:09.637Z,26.70
2017-12-02T20:24:41.364Z,26.87
2017-12-02T20:27:15.141Z,25.00
2017-12-02T20:29:44.747Z,25.90
2017-12-02T20:32:14.657Z,22.10
2017-12-02T20:34:43.036Z,25.70
2017-12-02T20:37:23.567Z,25.23
2017-12-02T20:39:56.508Z,24.10
2017-12-02T20:42:26.238Z,22.50
2017-12-02T20:44:56.346Z,22.80
2017-12-02T20:47:28.343Z,22.87
2017-12-02T20:50:05.482Z,25.20
2017-12-02T20:53:01.890Z,22.97
2017-12-02T20:55:48.190Z,23.70
2017-12-02T21:01:24.648Z,23.80
2017-12-02T21:03:54.155Z,23.40
2017-12-02T21:06:23.982Z,24.93
2017-12-02T21:08:54.251Z,24.10
2017-12-02T21:11:24.653Z,23.97
2017-12-02T21:13:53.046Z,25.80
2017-12-02T21:16:21.361Z,23.53
2017-12-02T21:18:50.580Z,26.00
2017-12-02T21:21:18.900Z,26.03
2017-12-02T21:23:47.979Z,25.83
2017-12-02T21:26:16.531Z,26.10
2017-12-02T21:28:45.777Z,26.67
2017-12-02T21:31:14.096Z,27.30
2017-12-02T21:33:42.489Z,25.00
2017-12-02T21:36:10.880Z,26.00
2017-12-02T21:38:39.993Z,26.23
2017-12-02T21:41:08.365Z,26.87
2017-12-02T21:43:36.941Z,26.40
2017-12-02T21:46:05.294Z,26.77
2017-12-02T21:48:34.346Z,26.77
2017-12-02T21:51:02.639Z,26.67
2017-12-02T21:53:32.075Z,25.10
2017-12-02T21:56:00.432Z,26.10
2017-12-02T21:58:28.883Z,26.30
2017-12-02T22:00:58.488Z,25.57
2017-12-02T22:03:27.175Z,24.03
2017-12-02T22:05:55.736Z,24.33
2017-12-02T22:08:24.023Z,24.17
2017-12-02T22:10:52.452Z,25.43
2017-12-02T22:13:21.846Z,26.73
2017-12-02T22:15:50.113Z,25.27
2017-12-02T22:18:18.376Z,25.30
2017-12-02T22:20:47.639Z,23.93
2017-12-02T22:23:16.253Z,26.40
2017-12-02T22:25:44.576Z,24.37
2017-12-02T22:28:13.097Z,23.97
2017-12-02T22:30:41.376Z,25.60
2017-12-02T22:33:10.026Z,25.47
2017-12-02T22:35:39.180Z,24.80
2017-12-02T22:38:07.444Z,24.10
2017-12-02T22:40:37.555Z,25.97
2017-12-02T22:43:05.819Z,27.17
2017-12-02T22:45:34.296Z,25.47
2017-12-02T22:48:02.530Z,27.23
2017-12-02T22:50:31.579Z,28.63
2017-12-02T22:52:59.863Z,27.80
2017-12-02T22:55:28.932Z,26.70
2017-12-02T22:57:57.274Z,26.80
2017-12-02T23:00:26.304Z,23.00
2017-12-02T23:02:54.579Z,29.67
2017-12-02T23:05:22.852Z,28.53
2017-12-02T23:07:51.892Z,26.13
2017-12-02T23:10:20.149Z,22.97
2017-12-02T23:12:48.393Z,25.57
2017-12-02T23:15:16.673Z,24.53
2017-12-02T23:17:44.905Z,22.63
2017-12-02T23:20:13.940Z,24.03
2017-12-02T23:22:42.377Z,27.20
2017-12-02T23:25:10.729Z,27.60
2017-12-02T23:27:38.969Z,30.50
2017-12-02T23:30:08.384Z,28.23
2017-12-02T23:32:36.643Z,25.33
2017-12-02T23:35:06.592Z,24.03
2017-12-02T23:37:35.619Z,23.37
2017-12-02T23:40:03.859Z,25.40
2017-12-02T23:42:32.111Z,25.73
2017-12-02T23:45:00.316Z,27.70
2017-12-02T23:47:29.539Z,24.07
2017-12-02T23:49:57.844Z,27.17
2017-12-02T23:52:26.114Z,24.77
2017-12-02T23:54:55.175Z,26.23
2017-12-02T23:57:23.462Z,23.40
2017-12-02T23:59:54.441Z,28.87
